This is the latest recevied weather packets stored in our database for station/object F4FEB-14. If no packets are shown the sender has not sent any weather packets the latest 10 day(s).
| Time | Temp. | Humidity | Pressure | Rain* | Wind** | Luminosity | Snow |
|---|---|---|---|---|---|---|---|
| 1777782838 | 15.56° C | 75% | 1017 hPa | 0 mm | - | - | - |
| 1777782537 | 15° C | 81% | 1017.1 hPa | 0 mm | - | - | - |
| 1777782236 | 15° C | 85% | 1017.1 hPa | 0 mm | - | - | - |
| 1777781935 | 15.56° C | 86% | 1017.2 hPa | 0 mm | - | - | - |
| 1777781633 | 15.56° C | 83% | 1017.1 hPa | 0 mm | - | - | - |
| 1777781332 | 15.56° C | 82% | 1017 hPa | 0 mm | - | - | - |
| 1777781029 | 15.56° C | 85% | 1017 hPa | 0 mm | - | - | - |
| 1777780728 | 15.56° C | 88% | 1017 hPa | 0 mm | - | - | - |
| 1777780427 | 15.56° C | 89% | 1016.9 hPa | 0 mm | - | - | - |
| 1777780126 | 15.56° C | 89% | 1016.9 hPa | 0 mm | - | - | - |
| 1777779825 | 15° C | 93% | 1017 hPa | 0 mm | - | - | - |
| 1777779523 | 14.44° C | 100% | 1017.1 hPa | 0 mm | - | - | - |
| 1777779221 | 13.89° C | 100% | 1017.2 hPa | 0 mm | - | - | - |
| 1777778920 | 13.33° C | 100% | 1017.3 hPa | 0 mm | - | - | - |
| 1777778619 | 13.33° C | 100% | 1017.3 hPa | 0 mm | - | - | - |
| 1777778317 | 13.33° C | 100% | 1017.3 hPa | 0 mm | - | - | - |
| 1777778015 | 13.33° C | 100% | 1017.2 hPa | 0 mm | - | - | - |
| 1777777714 | 12.78° C | 100% | 1017.1 hPa | 0 mm | - | - | - |
| 1777777110 | 10.56° C | 100% | 1017.4 hPa | 0 mm | - | - | - |
| 1777776809 | 10° C | 100% | 1017.4 hPa | 0 mm | - | - | - |
| 1777776507 | 10° C | 100% | 1017.4 hPa | 0 mm | - | - | - |
| 1777776206 | 10° C | 100% | 1017.4 hPa | 0 mm | - | - | - |
| 1777775905 | 10° C | 100% | 1017.4 hPa | 0 mm | - | - | - |
| 1777775604 | 10° C | 100% | 1017.5 hPa | 0 mm | - | - | - |
| 1777775303 | 10° C | 100% | 1017.4 hPa | 0 mm | - | - | - |
* Rain latest hour (hover to see other rain measurements)
** Current wind speed in m/s (hover to see current wind gust speed)